sensor_id;sensor_type;location;lat;lon;timestamp;temperature;humidity
44509;DHT22;30214;52.246;14.408;2024-02-21T00:00:29;7.10;99.90
44509;DHT22;30214;52.246;14.408;2024-02-21T00:02:57;7.10;99.90
44509;DHT22;30214;52.246;14.408;2024-02-21T00:05:26;7.10;99.90
44509;DHT22;30214;52.246;14.408;2024-02-21T00:07:53;7.20;99.90
44509;DHT22;30214;52.246;14.408;2024-02-21T00:10:20;7.20;99.90
44509;DHT22;30214;52.246;14.408;2024-02-21T00:12:48;7.20;99.90
44509;DHT22;30214;52.246;14.408;2024-02-21T00:15:15;7.20;99.90
44509;DHT22;30214;52.246;14.408;2024-02-21T00:17:45;7.20;99.90
44509;DHT22;30214;52.246;14.408;2024-02-21T00:20:12;7.20;99.90
44509;DHT22;30214;52.246;14.408;2024-02-21T00:22:41;7.30;99.90
44509;DHT22;30214;52.246;14.408;2024-02-21T00:25:08;7.30;99.90
44509;DHT22;30214;52.246;14.408;2024-02-21T00:27:36;7.30;99.90
44509;DHT22;30214;52.246;14.408;2024-02-21T00:30:04;7.30;99.90
44509;DHT22;30214;52.246;14.408;2024-02-21T00:32:31;7.30;99.90
44509;DHT22;30214;52.246;14.408;2024-02-21T00:35:00;7.40;99.90
44509;DHT22;30214;52.246;14.408;2024-02-21T00:37:27;7.40;99.90
44509;DHT22;30214;52.246;14.408;2024-02-21T00:39:56;7.30;99.90
44509;DHT22;30214;52.246;14.408;2024-02-21T00:42:23;7.30;99.90
44509;DHT22;30214;52.246;14.408;2024-02-21T00:44:50;7.40;99.90
44509;DHT22;30214;52.246;14.408;2024-02-21T00:47:17;7.40;99.90
44509;DHT22;30214;52.246;14.408;2024-02-21T00:49:45;7.40;99.90
44509;DHT22;30214;52.246;14.408;2024-02-21T00:52:12;7.40;99.90
44509;DHT22;30214;52.246;14.408;2024-02-21T00:54:42;7.40;99.90
44509;DHT22;30214;52.246;14.408;2024-02-21T00:57:10;7.40;99.90
44509;DHT22;30214;52.246;14.408;2024-02-21T00:59:37;7.40;99.90
44509;DHT22;30214;52.246;14.408;2024-02-21T01:02:04;7.40;99.90
44509;DHT22;30214;52.246;14.408;2024-02-21T01:04:32;7.40;99.90
44509;DHT22;30214;52.246;14.408;2024-02-21T01:07:01;7.40;99.90
44509;DHT22;30214;52.246;14.408;2024-02-21T01:09:28;7.40;99.90
44509;DHT22;30214;52.246;14.408;2024-02-21T01:11:55;7.40;99.90
44509;DHT22;30214;52.246;14.408;2024-02-21T01:14:24;7.40;99.90
44509;DHT22;30214;52.246;14.408;2024-02-21T01:16:51;7.40;99.90
44509;DHT22;30214;52.246;14.408;2024-02-21T01:19:18;7.40;99.90
44509;DHT22;30214;52.246;14.408;2024-02-21T01:21:45;7.40;99.90
44509;DHT22;30214;52.246;14.408;2024-02-21T01:24:15;7.40;99.90
44509;DHT22;30214;52.246;14.408;2024-02-21T01:26:43;7.40;99.90
44509;DHT22;30214;52.246;14.408;2024-02-21T01:29:10;7.40;99.90
44509;DHT22;30214;52.246;14.408;2024-02-21T01:31:38;7.40;99.90
44509;DHT22;30214;52.246;14.408;2024-02-21T01:34:05;7.40;99.90
44509;DHT22;30214;52.246;14.408;2024-02-21T01:36:32;7.40;99.90
44509;DHT22;30214;52.246;14.408;2024-02-21T01:39:00;7.30;99.90
44509;DHT22;30214;52.246;14.408;2024-02-21T01:41:29;7.30;99.90
44509;DHT22;30214;52.246;14.408;2024-02-21T01:43:57;7.30;99.90
44509;DHT22;30214;52.246;14.408;2024-02-21T01:46:25;7.30;99.90
44509;DHT22;30214;52.246;14.408;2024-02-21T01:48:56;7.40;99.90
44509;DHT22;30214;52.246;14.408;2024-02-21T01:51:24;7.40;99.90
44509;DHT22;30214;52.246;14.408;2024-02-21T01:53:52;7.40;99.90
44509;DHT22;30214;52.246;14.408;2024-02-21T01:56:20;7.40;99.90
44509;DHT22;30214;52.246;14.408;2024-02-21T01:58:48;7.40;99.90
44509;DHT22;30214;52.246;14.408;2024-02-21T02:01:16;7.40;99.90
44509;DHT22;30214;52.246;14.408;2024-02-21T02:03:45;7.40;99.90
44509;DHT22;30214;52.246;14.408;2024-02-21T02:06:14;7.30;99.90
44509;DHT22;30214;52.246;14.408;2024-02-21T02:08:42;7.40;99.90
44509;DHT22;30214;52.246;14.408;2024-02-21T02:11:09;7.40;99.90
44509;DHT22;30214;52.246;14.408;2024-02-21T02:13:37;7.30;99.90
44509;DHT22;30214;52.246;14.408;2024-02-21T02:16:05;7.30;99.90
44509;DHT22;30214;52.246;14.408;2024-02-21T02:18:33;7.30;99.90
44509;DHT22;30214;52.246;14.408;2024-02-21T02:21:05;7.30;99.90
44509;DHT22;30214;52.246;14.408;2024-02-21T02:23:38;7.30;99.90
44509;DHT22;30214;52.246;14.408;2024-02-21T02:26:05;7.20;99.90
44509;DHT22;30214;52.246;14.408;2024-02-21T02:28:33;7.20;99.90
44509;DHT22;30214;52.246;14.408;2024-02-21T02:31:00;7.20;99.90
44509;DHT22;30214;52.246;14.408;2024-02-21T02:33:27;7.10;99.90
44509;DHT22;30214;52.246;14.408;2024-02-21T02:35:54;7.20;99.90
44509;DHT22;30214;52.246;14.408;2024-02-21T02:38:21;7.20;99.90
44509;DHT22;30214;52.246;14.408;2024-02-21T02:40:50;7.20;99.90
44509;DHT22;30214;52.246;14.408;2024-02-21T02:43:17;7.20;99.90
44509;DHT22;30214;52.246;14.408;2024-02-21T02:45:44;7.20;99.90
44509;DHT22;30214;52.246;14.408;2024-02-21T02:48:11;7.20;99.90
44509;DHT22;30214;52.246;14.408;2024-02-21T02:50:38;7.20;99.90
44509;DHT22;30214;52.246;14.408;2024-02-21T02:53:05;7.20;99.90
44509;DHT22;30214;52.246;14.408;2024-02-21T02:55:33;7.20;99.90
44509;DHT22;30214;52.246;14.408;2024-02-21T02:58:02;7.20;99.90
44509;DHT22;30214;52.246;14.408;2024-02-21T03:00:30;7.20;99.90
44509;DHT22;30214;52.246;14.408;2024-02-21T03:03:02;7.20;99.90
44509;DHT22;30214;52.246;14.408;2024-02-21T03:05:30;7.20;99.90
44509;DHT22;30214;52.246;14.408;2024-02-21T03:07:57;7.20;99.90
44509;DHT22;30214;52.246;14.408;2024-02-21T03:10:25;7.20;99.90
44509;DHT22;30214;52.246;14.408;2024-02-21T03:12:52;7.10;99.90
44509;DHT22;30214;52.246;14.408;2024-02-21T03:15:20;7.10;99.90
44509;DHT22;30214;52.246;14.408;2024-02-21T03:17:48;7.10;99.90
44509;DHT22;30214;52.246;14.408;2024-02-21T03:20:15;7.10;99.90
44509;DHT22;30214;52.246;14.408;2024-02-21T03:22:43;7.10;99.90
44509;DHT22;30214;52.246;14.408;2024-02-21T03:25:10;7.10;99.90
44509;DHT22;30214;52.246;14.408;2024-02-21T03:27:38;7.10;99.90
44509;DHT22;30214;52.246;14.408;2024-02-21T03:30:06;7.20;99.90
44509;DHT22;30214;52.246;14.408;2024-02-21T03:32:35;7.10;99.90
44509;DHT22;30214;52.246;14.408;2024-02-21T03:35:05;7.20;99.90
44509;DHT22;30214;52.246;14.408;2024-02-21T03:37:32;7.20;99.90
44509;DHT22;30214;52.246;14.408;2024-02-21T03:39:59;7.20;99.90
44509;DHT22;30214;52.246;14.408;2024-02-21T03:42:27;7.20;99.90
44509;DHT22;30214;52.246;14.408;2024-02-21T03:44:57;7.30;99.90
44509;DHT22;30214;52.246;14.408;2024-02-21T03:47:24;7.30;99.90
44509;DHT22;30214;52.246;14.408;2024-02-21T03:49:53;7.20;99.90
44509;DHT22;30214;52.246;14.408;2024-02-21T03:52:20;7.30;99.90
44509;DHT22;30214;52.246;14.408;2024-02-21T03:54:47;7.20;99.90
44509;DHT22;30214;52.246;14.408;2024-02-21T03:57:14;7.20;99.90
44509;DHT22;30214;52.246;14.408;2024-02-21T03:59:43;7.20;99.90
44509;DHT22;30214;52.246;14.408;2024-02-21T04:02:10;7.20;99.90
44509;DHT22;30214;52.246;14.408;2024-02-21T04:04:37;7.10;99.90
44509;DHT22;30214;52.246;14.408;2024-02-21T04:07:07;7.10;99.90
44509;DHT22;30214;52.246;14.408;2024-02-21T04:09:34;7.00;99.90
44509;DHT22;30214;52.246;14.408;2024-02-21T04:12:01;7.00;99.90
44509;DHT22;30214;52.246;14.408;2024-02-21T04:14:29;7.00;99.90
44509;DHT22;30214;52.246;14.408;2024-02-21T04:16:56;7.00;99.90
44509;DHT22;30214;52.246;14.408;2024-02-21T04:19:23;6.90;99.90
44509;DHT22;30214;52.246;14.408;2024-02-21T04:21:51;6.90;99.90
44509;DHT22;30214;52.246;14.408;2024-02-21T04:24:19;6.90;99.90
44509;DHT22;30214;52.246;14.408;2024-02-21T04:26:46;6.90;99.90
44509;DHT22;30214;52.246;14.408;2024-02-21T04:29:13;6.90;99.90
44509;DHT22;30214;52.246;14.408;2024-02-21T04:31:40;6.90;99.90
44509;DHT22;30214;52.246;14.408;2024-02-21T04:34:07;6.90;99.90
44509;DHT22;30214;52.246;14.408;2024-02-21T04:36:35;6.90;99.90
44509;DHT22;30214;52.246;14.408;2024-02-21T04:39:02;6.80;99.90
44509;DHT22;30214;52.246;14.408;2024-02-21T04:41:30;6.80;99.90
44509;DHT22;30214;52.246;14.408;2024-02-21T04:43:57;6.80;99.90
44509;DHT22;30214;52.246;14.408;2024-02-21T04:46:25;6.80;99.90
44509;DHT22;30214;52.246;14.408;2024-02-21T04:48:52;6.70;99.90
44509;DHT22;30214;52.246;14.408;2024-02-21T04:51:20;6.80;99.90
44509;DHT22;30214;52.246;14.408;2024-02-21T04:53:47;6.80;99.90
44509;DHT22;30214;52.246;14.408;2024-02-21T04:56:17;6.80;99.90
44509;DHT22;30214;52.246;14.408;2024-02-21T04:58:45;6.80;99.90
44509;DHT22;30214;52.246;14.408;2024-02-21T05:01:12;6.80;99.90
44509;DHT22;30214;52.246;14.408;2024-02-21T05:03:39;6.70;99.90
44509;DHT22;30214;52.246;14.408;2024-02-21T05:06:07;6.70;99.90
44509;DHT22;30214;52.246;14.408;2024-02-21T05:08:34;6.70;99.90
44509;DHT22;30214;52.246;14.408;2024-02-21T05:11:03;6.70;99.90
44509;DHT22;30214;52.246;14.408;2024-02-21T05:13:30;6.70;99.90
44509;DHT22;30214;52.246;14.408;2024-02-21T05:15:59;6.70;99.90
44509;DHT22;30214;52.246;14.408;2024-02-21T05:18:28;6.70;99.90
44509;DHT22;30214;52.246;14.408;2024-02-21T05:20:55;6.70;99.90
44509;DHT22;30214;52.246;14.408;2024-02-21T05:23:22;6.70;99.90
44509;DHT22;30214;52.246;14.408;2024-02-21T05:25:49;6.70;99.90
44509;DHT22;30214;52.246;14.408;2024-02-21T05:28:17;6.80;99.90
44509;DHT22;30214;52.246;14.408;2024-02-21T05:30:44;6.70;99.90
44509;DHT22;30214;52.246;14.408;2024-02-21T05:33:12;6.70;99.90
44509;DHT22;30214;52.246;14.408;2024-02-21T05:35:46;6.70;99.90
44509;DHT22;30214;52.246;14.408;2024-02-21T05:38:14;6.60;99.90
44509;DHT22;30214;52.246;14.408;2024-02-21T05:40:42;6.60;99.90
44509;DHT22;30214;52.246;14.408;2024-02-21T05:43:09;6.60;99.90
44509;DHT22;30214;52.246;14.408;2024-02-21T05:45:39;6.60;99.90
44509;DHT22;30214;52.246;14.408;2024-02-21T05:48:07;6.70;99.90
44509;DHT22;30214;52.246;14.408;2024-02-21T05:50:36;6.70;99.90
44509;DHT22;30214;52.246;14.408;2024-02-21T05:53:03;6.70;99.90
44509;DHT22;30214;52.246;14.408;2024-02-21T05:55:30;6.70;99.90
44509;DHT22;30214;52.246;14.408;2024-02-21T05:57:57;6.70;99.90
44509;DHT22;30214;52.246;14.408;2024-02-21T06:00:29;6.70;99.90
44509;DHT22;30214;52.246;14.408;2024-02-21T06:02:56;6.70;99.90
44509;DHT22;30214;52.246;14.408;2024-02-21T06:05:23;6.70;99.90
44509;DHT22;30214;52.246;14.408;2024-02-21T06:07:51;6.60;99.90
44509;DHT22;30214;52.246;14.408;2024-02-21T06:10:18;6.70;99.90
44509;DHT22;30214;52.246;14.408;2024-02-21T06:12:46;6.80;99.90
44509;DHT22;30214;52.246;14.408;2024-02-21T06:15:13;6.80;99.90
44509;DHT22;30214;52.246;14.408;2024-02-21T06:17:40;6.70;99.90
44509;DHT22;30214;52.246;14.408;2024-02-21T06:20:08;6.80;99.90
44509;DHT22;30214;52.246;14.408;2024-02-21T06:22:36;6.80;99.90
44509;DHT22;30214;52.246;14.408;2024-02-21T06:25:05;6.80;99.90
44509;DHT22;30214;52.246;14.408;2024-02-21T06:27:32;6.80;99.90
44509;DHT22;30214;52.246;14.408;2024-02-21T06:29:59;6.80;99.90
44509;DHT22;30214;52.246;14.408;2024-02-21T06:32:28;6.90;99.90
44509;DHT22;30214;52.246;14.408;2024-02-21T06:34:55;6.90;99.90
44509;DHT22;30214;52.246;14.408;2024-02-21T06:37:23;6.80;99.90
44509;DHT22;30214;52.246;14.408;2024-02-21T06:39:50;6.80;99.90
44509;DHT22;30214;52.246;14.408;2024-02-21T06:42:21;6.80;99.90
44509;DHT22;30214;52.246;14.408;2024-02-21T06:44:48;6.80;99.90
44509;DHT22;30214;52.246;14.408;2024-02-21T06:47:15;6.80;99.90
44509;DHT22;30214;52.246;14.408;2024-02-21T06:49:43;6.80;99.90
44509;DHT22;30214;52.246;14.408;2024-02-21T06:52:11;6.80;99.90
44509;DHT22;30214;52.246;14.408;2024-02-21T06:54:42;6.80;99.90
44509;DHT22;30214;52.246;14.408;2024-02-21T06:57:09;6.90;99.90
44509;DHT22;30214;52.246;14.408;2024-02-21T06:59:37;6.90;99.90
44509;DHT22;30214;52.246;14.408;2024-02-21T07:02:05;6.80;99.90
44509;DHT22;30214;52.246;14.408;2024-02-21T07:04:32;6.90;99.90
44509;DHT22;30214;52.246;14.408;2024-02-21T07:07:00;6.80;99.90
44509;DHT22;30214;52.246;14.408;2024-02-21T07:09:27;6.80;99.90
44509;DHT22;30214;52.246;14.408;2024-02-21T07:11:57;6.90;99.90
44509;DHT22;30214;52.246;14.408;2024-02-21T07:14:25;6.90;99.90
44509;DHT22;30214;52.246;14.408;2024-02-21T07:16:53;6.90;99.90
44509;DHT22;30214;52.246;14.408;2024-02-21T07:19:22;6.90;99.90
44509;DHT22;30214;52.246;14.408;2024-02-21T07:21:49;6.90;99.90
44509;DHT22;30214;52.246;14.408;2024-02-21T07:24:19;6.90;99.90
44509;DHT22;30214;52.246;14.408;2024-02-21T07:26:46;6.90;99.90
44509;DHT22;30214;52.246;14.408;2024-02-21T07:29:13;7.00;99.90
44509;DHT22;30214;52.246;14.408;2024-02-21T07:31:42;7.00;99.90
44509;DHT22;30214;52.246;14.408;2024-02-21T07:34:11;7.00;99.90
44509;DHT22;30214;52.246;14.408;2024-02-21T07:36:39;7.00;99.90
44509;DHT22;30214;52.246;14.408;2024-02-21T07:39:08;7.10;99.90
44509;DHT22;30214;52.246;14.408;2024-02-21T07:41:35;7.10;99.90
44509;DHT22;30214;52.246;14.408;2024-02-21T07:44:05;7.10;99.90
44509;DHT22;30214;52.246;14.408;2024-02-21T07:46:32;7.20;99.90
44509;DHT22;30214;52.246;14.408;2024-02-21T07:49:00;7.20;99.90
44509;DHT22;30214;52.246;14.408;2024-02-21T07:51:29;7.20;99.90
44509;DHT22;30214;52.246;14.408;2024-02-21T07:53:57;7.30;99.90
44509;DHT22;30214;52.246;14.408;2024-02-21T07:56:27;7.30;99.90
44509;DHT22;30214;52.246;14.408;2024-02-21T07:58:55;7.30;99.90
44509;DHT22;30214;52.246;14.408;2024-02-21T08:01:22;7.20;99.90
44509;DHT22;30214;52.246;14.408;2024-02-21T08:03:49;7.20;99.90
44509;DHT22;30214;52.246;14.408;2024-02-21T08:06:16;7.10;99.90
44509;DHT22;30214;52.246;14.408;2024-02-21T08:08:45;7.20;99.90
44509;DHT22;30214;52.246;14.408;2024-02-21T08:11:13;7.20;99.90
44509;DHT22;30214;52.246;14.408;2024-02-21T08:13:40;7.30;99.90
44509;DHT22;30214;52.246;14.408;2024-02-21T08:16:07;7.30;99.90
44509;DHT22;30214;52.246;14.408;2024-02-21T08:18:34;7.40;99.90
44509;DHT22;30214;52.246;14.408;2024-02-21T08:21:04;7.40;99.90
44509;DHT22;30214;52.246;14.408;2024-02-21T08:23:32;7.40;99.90
44509;DHT22;30214;52.246;14.408;2024-02-21T08:26:03;7.40;99.90
44509;DHT22;30214;52.246;14.408;2024-02-21T08:28:30;7.40;99.90
44509;DHT22;30214;52.246;14.408;2024-02-21T08:30:58;7.40;99.90
44509;DHT22;30214;52.246;14.408;2024-02-21T08:33:29;7.40;99.90
44509;DHT22;30214;52.246;14.408;2024-02-21T08:35:56;7.40;99.90
44509;DHT22;30214;52.246;14.408;2024-02-21T08:38:24;7.40;99.90
44509;DHT22;30214;52.246;14.408;2024-02-21T08:40:51;7.50;99.90
44509;DHT22;30214;52.246;14.408;2024-02-21T08:43:20;7.50;99.90
44509;DHT22;30214;52.246;14.408;2024-02-21T08:45:47;7.50;99.90
44509;DHT22;30214;52.246;14.408;2024-02-21T08:48:16;7.50;99.90
44509;DHT22;30214;52.246;14.408;2024-02-21T08:50:43;7.50;99.90
44509;DHT22;30214;52.246;14.408;2024-02-21T08:53:11;7.60;99.90
44509;DHT22;30214;52.246;14.408;2024-02-21T08:55:40;7.60;99.90
44509;DHT22;30214;52.246;14.408;2024-02-21T08:58:07;7.70;99.90
44509;DHT22;30214;52.246;14.408;2024-02-21T09:00:35;7.70;99.90
44509;DHT22;30214;52.246;14.408;2024-02-21T09:03:03;7.70;99.90
44509;DHT22;30214;52.246;14.408;2024-02-21T09:05:31;7.80;99.90
44509;DHT22;30214;52.246;14.408;2024-02-21T09:08:00;7.80;99.90
44509;DHT22;30214;52.246;14.408;2024-02-21T09:10:29;7.80;99.90
44509;DHT22;30214;52.246;14.408;2024-02-21T09:12:57;7.80;99.90
44509;DHT22;30214;52.246;14.408;2024-02-21T09:15:24;7.90;99.90
44509;DHT22;30214;52.246;14.408;2024-02-21T09:17:53;8.00;99.90
44509;DHT22;30214;52.246;14.408;2024-02-21T09:20:21;8.00;99.90
44509;DHT22;30214;52.246;14.408;2024-02-21T09:22:48;8.00;99.90
44509;DHT22;30214;52.246;14.408;2024-02-21T09:25:15;8.00;99.90
44509;DHT22;30214;52.246;14.408;2024-02-21T09:27:44;8.00;99.90
44509;DHT22;30214;52.246;14.408;2024-02-21T09:30:12;8.00;99.90
44509;DHT22;30214;52.246;14.408;2024-02-21T09:32:40;8.10;99.90
44509;DHT22;30214;52.246;14.408;2024-02-21T09:35:09;8.20;99.90
44509;DHT22;30214;52.246;14.408;2024-02-21T09:37:38;8.30;99.90
44509;DHT22;30214;52.246;14.408;2024-02-21T09:40:10;8.30;99.90
44509;DHT22;30214;52.246;14.408;2024-02-21T09:42:38;8.40;99.90
44509;DHT22;30214;52.246;14.408;2024-02-21T09:45:09;8.40;99.90
44509;DHT22;30214;52.246;14.408;2024-02-21T09:47:50;8.50;99.90
44509;DHT22;30214;52.246;14.408;2024-02-21T09:50:26;8.50;99.90
44509;DHT22;30214;52.246;14.408;2024-02-21T09:52:54;8.50;99.90
44509;DHT22;30214;52.246;14.408;2024-02-21T09:55:23;8.60;99.90
44509;DHT22;30214;52.246;14.408;2024-02-21T09:57:51;8.70;99.90
44509;DHT22;30214;52.246;14.408;2024-02-21T10:00:19;8.70;99.90
44509;DHT22;30214;52.246;14.408;2024-02-21T10:02:51;8.70;99.90
44509;DHT22;30214;52.246;14.408;2024-02-21T10:05:18;8.60;99.90
44509;DHT22;30214;52.246;14.408;2024-02-21T10:07:48;8.70;99.90
44509;DHT22;30214;52.246;14.408;2024-02-21T10:10:16;8.80;99.90
44509;DHT22;30214;52.246;14.408;2024-02-21T10:12:50;8.80;99.90
44509;DHT22;30214;52.246;14.408;2024-02-21T10:15:20;8.90;99.90
44509;DHT22;30214;52.246;14.408;2024-02-21T10:17:49;8.90;99.90
44509;DHT22;30214;52.246;14.408;2024-02-21T10:20:16;8.90;99.90
44509;DHT22;30214;52.246;14.408;2024-02-21T10:22:44;9.00;99.90
44509;DHT22;30214;52.246;14.408;2024-02-21T10:25:13;9.10;99.90
44509;DHT22;30214;52.246;14.408;2024-02-21T10:27:41;9.00;99.90
44509;DHT22;30214;52.246;14.408;2024-02-21T10:30:14;9.00;99.90
44509;DHT22;30214;52.246;14.408;2024-02-21T10:32:49;9.00;99.90
44509;DHT22;30214;52.246;14.408;2024-02-21T10:35:29;9.10;99.90
44509;DHT22;30214;52.246;14.408;2024-02-21T10:37:59;9.00;99.90
44509;DHT22;30214;52.246;14.408;2024-02-21T10:40:48;9.00;99.90
44509;DHT22;30214;52.246;14.408;2024-02-21T10:43:19;9.10;99.90
44509;DHT22;30214;52.246;14.408;2024-02-21T10:45:47;9.20;99.90
44509;DHT22;30214;52.246;14.408;2024-02-21T10:48:16;9.30;99.90
44509;DHT22;30214;52.246;14.408;2024-02-21T10:51:14;9.30;99.90
44509;DHT22;30214;52.246;14.408;2024-02-21T10:53:45;9.30;99.90
44509;DHT22;30214;52.246;14.408;2024-02-21T10:56:24;9.30;99.90
44509;DHT22;30214;52.246;14.408;2024-02-21T10:58:53;9.30;99.90
44509;DHT22;30214;52.246;14.408;2024-02-21T11:01:23;9.30;99.90
44509;DHT22;30214;52.246;14.408;2024-02-21T11:03:54;9.40;99.90
44509;DHT22;30214;52.246;14.408;2024-02-21T11:06:23;9.50;99.90
44509;DHT22;30214;52.246;14.408;2024-02-21T11:09:04;9.50;99.90
44509;DHT22;30214;52.246;14.408;2024-02-21T11:11:38;9.60;99.90
44509;DHT22;30214;52.246;14.408;2024-02-21T11:14:06;9.60;99.90
44509;DHT22;30214;52.246;14.408;2024-02-21T11:16:38;9.60;99.90
44509;DHT22;30214;52.246;14.408;2024-02-21T11:19:07;9.60;99.90
44509;DHT22;30214;52.246;14.408;2024-02-21T11:21:37;9.70;99.90
44509;DHT22;30214;52.246;14.408;2024-02-21T11:24:13;9.80;99.90
44509;DHT22;30214;52.246;14.408;2024-02-21T11:26:42;9.80;99.90
44509;DHT22;30214;52.246;14.408;2024-02-21T11:29:09;10.00;99.90
44509;DHT22;30214;52.246;14.408;2024-02-21T11:31:40;10.00;99.90
44509;DHT22;30214;52.246;14.408;2024-02-21T11:34:11;10.10;99.90
44509;DHT22;30214;52.246;14.408;2024-02-21T11:36:47;10.00;99.90
44509;DHT22;30214;52.246;14.408;2024-02-21T11:39:20;10.00;99.90
44509;DHT22;30214;52.246;14.408;2024-02-21T11:42:06;10.00;99.90
44509;DHT22;30214;52.246;14.408;2024-02-21T11:44:35;10.10;99.90
44509;DHT22;30214;52.246;14.408;2024-02-21T11:47:04;10.20;99.90
44509;DHT22;30214;52.246;14.408;2024-02-21T11:49:36;10.30;99.90
44509;DHT22;30214;52.246;14.408;2024-02-21T11:52:05;10.30;99.90
44509;DHT22;30214;52.246;14.408;2024-02-21T11:54:33;10.50;99.90
44509;DHT22;30214;52.246;14.408;2024-02-21T11:57:01;10.60;99.90
44509;DHT22;30214;52.246;14.408;2024-02-21T11:59:31;10.60;99.90
44509;DHT22;30214;52.246;14.408;2024-02-21T12:01:59;11.00;99.90
44509;DHT22;30214;52.246;14.408;2024-02-21T12:04:31;11.10;99.90
44509;DHT22;30214;52.246;14.408;2024-02-21T12:06:58;11.10;99.90
44509;DHT22;30214;52.246;14.408;2024-02-21T12:09:29;11.00;99.90
44509;DHT22;30214;52.246;14.408;2024-02-21T12:11:57;11.10;99.90
44509;DHT22;30214;52.246;14.408;2024-02-21T12:14:28;11.20;99.90
44509;DHT22;30214;52.246;14.408;2024-02-21T12:17:01;11.20;99.90
44509;DHT22;30214;52.246;14.408;2024-02-21T12:19:31;11.20;99.90
44509;DHT22;30214;52.246;14.408;2024-02-21T12:21:59;11.10;99.90
44509;DHT22;30214;52.246;14.408;2024-02-21T12:24:28;11.00;99.90
44509;DHT22;30214;52.246;14.408;2024-02-21T12:26:56;11.00;99.90
44509;DHT22;30214;52.246;14.408;2024-02-21T12:29:31;11.00;99.90
44509;DHT22;30214;52.246;14.408;2024-02-21T12:31:59;11.00;99.90
44509;DHT22;30214;52.246;14.408;2024-02-21T12:34:26;11.10;99.90
44509;DHT22;30214;52.246;14.408;2024-02-21T12:36:58;11.00;99.90
44509;DHT22;30214;52.246;14.408;2024-02-21T12:39:25;10.90;99.90
44509;DHT22;30214;52.246;14.408;2024-02-21T12:41:54;10.80;99.90
44509;DHT22;30214;52.246;14.408;2024-02-21T12:44:22;10.80;99.90
44509;DHT22;30214;52.246;14.408;2024-02-21T12:46:49;10.70;99.90
44509;DHT22;30214;52.246;14.408;2024-02-21T12:49:21;10.70;99.90
44509;DHT22;30214;52.246;14.408;2024-02-21T12:51:49;10.80;99.90
44509;DHT22;30214;52.246;14.408;2024-02-21T12:54:17;10.90;99.90
44509;DHT22;30214;52.246;14.408;2024-02-21T12:56:47;11.00;99.90
44509;DHT22;30214;52.246;14.408;2024-02-21T12:59:15;11.10;99.90
44509;DHT22;30214;52.246;14.408;2024-02-21T13:01:42;11.20;99.90
44509;DHT22;30214;52.246;14.408;2024-02-21T13:04:09;11.20;99.90
44509;DHT22;30214;52.246;14.408;2024-02-21T13:06:38;11.20;99.90
44509;DHT22;30214;52.246;14.408;2024-02-21T13:09:05;11.20;99.90
44509;DHT22;30214;52.246;14.408;2024-02-21T13:11:37;11.10;99.90
44509;DHT22;30214;52.246;14.408;2024-02-21T13:14:04;11.10;99.90
44509;DHT22;30214;52.246;14.408;2024-02-21T13:16:31;11.00;99.90
44509;DHT22;30214;52.246;14.408;2024-02-21T13:19:00;10.90;99.90
44509;DHT22;30214;52.246;14.408;2024-02-21T13:21:27;10.90;99.90
44509;DHT22;30214;52.246;14.408;2024-02-21T13:23:55;10.90;99.90
44509;DHT22;30214;52.246;14.408;2024-02-21T13:26:23;10.80;99.90
44509;DHT22;30214;52.246;14.408;2024-02-21T13:28:50;10.70;99.90
44509;DHT22;30214;52.246;14.408;2024-02-21T13:31:17;10.70;99.90
44509;DHT22;30214;52.246;14.408;2024-02-21T13:33:47;10.70;99.90
44509;DHT22;30214;52.246;14.408;2024-02-21T13:36:15;10.70;99.90
44509;DHT22;30214;52.246;14.408;2024-02-21T13:38:42;10.70;99.90
44509;DHT22;30214;52.246;14.408;2024-02-21T13:41:10;10.70;99.90
44509;DHT22;30214;52.246;14.408;2024-02-21T13:43:37;10.70;99.90
44509;DHT22;30214;52.246;14.408;2024-02-21T13:46:04;10.70;99.90
44509;DHT22;30214;52.246;14.408;2024-02-21T13:48:35;10.70;99.90
44509;DHT22;30214;52.246;14.408;2024-02-21T13:51:03;10.80;99.90
44509;DHT22;30214;52.246;14.408;2024-02-21T13:53:30;10.70;99.90
44509;DHT22;30214;52.246;14.408;2024-02-21T13:55:57;10.70;99.90
44509;DHT22;30214;52.246;14.408;2024-02-21T13:58:26;10.70;99.90
44509;DHT22;30214;52.246;14.408;2024-02-21T14:00:53;10.70;99.90
44509;DHT22;30214;52.246;14.408;2024-02-21T14:03:22;10.70;99.90
44509;DHT22;30214;52.246;14.408;2024-02-21T14:05:49;10.70;99.90
44509;DHT22;30214;52.246;14.408;2024-02-21T14:08:16;10.70;99.90
44509;DHT22;30214;52.246;14.408;2024-02-21T14:10:47;10.70;99.90
44509;DHT22;30214;52.246;14.408;2024-02-21T14:13:16;10.60;99.90
44509;DHT22;30214;52.246;14.408;2024-02-21T14:15:46;10.60;99.90
44509;DHT22;30214;52.246;14.408;2024-02-21T14:18:16;10.60;99.90
44509;DHT22;30214;52.246;14.408;2024-02-21T14:20:43;10.50;99.90
44509;DHT22;30214;52.246;14.408;2024-02-21T14:23:12;10.50;99.90
44509;DHT22;30214;52.246;14.408;2024-02-21T14:25:45;10.40;99.90
44509;DHT22;30214;52.246;14.408;2024-02-21T14:28:12;10.40;99.90
44509;DHT22;30214;52.246;14.408;2024-02-21T14:30:40;10.40;99.90
44509;DHT22;30214;52.246;14.408;2024-02-21T14:33:09;10.40;99.90
44509;DHT22;30214;52.246;14.408;2024-02-21T14:35:36;10.40;99.90
44509;DHT22;30214;52.246;14.408;2024-02-21T14:38:04;10.40;99.90
44509;DHT22;30214;52.246;14.408;2024-02-21T14:40:31;10.40;99.90
44509;DHT22;30214;52.246;14.408;2024-02-21T14:42:59;10.40;99.90
44509;DHT22;30214;52.246;14.408;2024-02-21T14:45:26;10.40;99.90
44509;DHT22;30214;52.246;14.408;2024-02-21T14:47:53;10.40;99.90
44509;DHT22;30214;52.246;14.408;2024-02-21T14:50:22;10.50;99.90
44509;DHT22;30214;52.246;14.408;2024-02-21T14:52:50;10.40;99.90
44509;DHT22;30214;52.246;14.408;2024-02-21T14:55:18;10.40;99.90
44509;DHT22;30214;52.246;14.408;2024-02-21T14:57:45;10.30;99.90
44509;DHT22;30214;52.246;14.408;2024-02-21T15:00:13;10.30;99.90
44509;DHT22;30214;52.246;14.408;2024-02-21T15:02:41;10.30;99.90
44509;DHT22;30214;52.246;14.408;2024-02-21T15:05:09;10.30;99.90
44509;DHT22;30214;52.246;14.408;2024-02-21T15:07:39;10.30;99.90
44509;DHT22;30214;52.246;14.408;2024-02-21T15:10:09;10.30;99.90
44509;DHT22;30214;52.246;14.408;2024-02-21T15:12:36;10.30;99.90
44509;DHT22;30214;52.246;14.408;2024-02-21T15:15:04;10.30;99.90
44509;DHT22;30214;52.246;14.408;2024-02-21T15:17:35;10.30;99.90
44509;DHT22;30214;52.246;14.408;2024-02-21T15:20:03;10.40;99.90
44509;DHT22;30214;52.246;14.408;2024-02-21T15:22:33;10.40;99.90
44509;DHT22;30214;52.246;14.408;2024-02-21T15:25:03;10.40;99.90
44509;DHT22;30214;52.246;14.408;2024-02-21T15:27:31;10.40;99.90
44509;DHT22;30214;52.246;14.408;2024-02-21T15:29:58;10.40;99.90
44509;DHT22;30214;52.246;14.408;2024-02-21T15:32:26;10.30;99.90
44509;DHT22;30214;52.246;14.408;2024-02-21T15:34:54;10.30;99.90